createdAt,value
2022-07-25T00:01:47.546Z,7.88
2022-07-25T00:04:14.853Z,7.78
2022-07-25T00:06:42.878Z,7.35
2022-07-25T00:09:10.664Z,7.63
2022-07-25T00:11:37.819Z,7.97
2022-07-25T00:14:05.522Z,7.78
2022-07-25T00:16:32.769Z,7.38
2022-07-25T00:18:59.956Z,7.38
2022-07-25T00:21:26.791Z,7.13
2022-07-25T00:23:53.686Z,7.05
2022-07-25T00:26:20.518Z,7.25
2022-07-25T00:28:47.308Z,7.03
2022-07-25T00:31:14.236Z,7.60
2022-07-25T00:33:41.213Z,7.70
2022-07-25T00:36:08.954Z,7.32
2022-07-25T00:38:36.291Z,6.97
2022-07-25T00:41:04.354Z,7.22
2022-07-25T00:43:31.453Z,7.45
2022-07-25T00:45:59.327Z,7.00
2022-07-25T00:48:27.758Z,7.22
2022-07-25T00:50:55.633Z,7.03
2022-07-25T00:53:23.011Z,7.05
2022-07-25T00:55:49.929Z,7.28
2022-07-25T00:58:18.781Z,7.40
2022-07-25T01:00:45.856Z,7.35
2022-07-25T01:03:13.105Z,7.60
2022-07-25T01:05:40.031Z,7.70
2022-07-25T01:08:07.617Z,7.90
2022-07-25T01:10:34.659Z,7.82
2022-07-25T01:13:01.939Z,7.90
2022-07-25T01:15:28.881Z,7.20
2022-07-25T01:17:55.919Z,7.85
2022-07-25T01:20:27.330Z,7.32
2022-07-25T01:22:55.198Z,7.05
2022-07-25T01:25:22.871Z,7.82
2022-07-25T01:27:55.134Z,7.63
2022-07-25T01:30:24.613Z,7.30
2022-07-25T01:32:52.204Z,7.80
2022-07-25T01:35:19.296Z,7.63
2022-07-25T01:37:46.368Z,7.50
2022-07-25T01:40:14.338Z,7.25
2022-07-25T01:42:42.177Z,6.90
2022-07-25T01:45:09.891Z,7.80
2022-07-25T01:47:37.140Z,7.28
2022-07-25T01:50:05.384Z,7.82
2022-07-25T01:52:32.368Z,7.63
2022-07-25T01:54:59.237Z,7.75
2022-07-25T01:57:30.643Z,7.03
2022-07-25T01:59:58.398Z,6.95
2022-07-25T02:02:25.374Z,6.68
2022-07-25T02:04:52.350Z,6.97
2022-07-25T02:07:19.675Z,6.65
2022-07-25T02:09:46.570Z,7.00
2022-07-25T02:12:13.362Z,7.00
2022-07-25T02:14:40.286Z,7.03
2022-07-25T02:17:07.167Z,6.72
2022-07-25T02:19:34.379Z,7.22
2022-07-25T02:22:01.330Z,7.95
2022-07-25T02:24:28.262Z,7.45
2022-07-25T02:26:55.081Z,7.18
2022-07-25T02:29:22.294Z,7.45
2022-07-25T02:31:49.270Z,7.15
2022-07-25T02:34:16.092Z,6.50
2022-07-25T02:36:43.361Z,6.90
2022-07-25T02:39:10.177Z,6.93
2022-07-25T02:41:37.116Z,6.55
2022-07-25T02:44:05.278Z,6.63
2022-07-25T02:46:33.343Z,6.05
2022-07-25T02:49:00.283Z,6.18
2022-07-25T02:51:27.180Z,6.25
2022-07-25T02:53:57.801Z,6.93
2022-07-25T02:56:25.910Z,6.13
2022-07-25T02:58:53.824Z,6.43
2022-07-25T03:01:20.677Z,6.30
2022-07-25T03:03:47.580Z,5.85
2022-07-25T03:06:14.508Z,5.97
2022-07-25T03:08:41.273Z,6.53
2022-07-25T03:11:08.070Z,6.30
2022-07-25T03:13:34.976Z,6.40
2022-07-25T03:16:02.252Z,5.88
2022-07-25T03:18:29.037Z,6.18
2022-07-25T03:20:55.849Z,5.50
2022-07-25T03:23:22.754Z,5.63
2022-07-25T03:25:49.535Z,6.07
2022-07-25T03:28:16.380Z,5.85
2022-07-25T03:30:43.190Z,5.70
2022-07-25T03:33:10.200Z,5.90
2022-07-25T03:35:39.938Z,5.00
2022-07-25T03:38:06.903Z,5.35
2022-07-25T03:40:34.308Z,8.73
2022-07-25T03:43:01.110Z,9.15
2022-07-25T03:45:27.981Z,8.55
2022-07-25T03:47:54.761Z,6.18
2022-07-25T03:50:21.843Z,5.60
2022-07-25T03:52:48.615Z,5.60
2022-07-25T03:55:15.555Z,5.40
2022-07-25T03:57:42.359Z,5.70
2022-07-25T04:00:10.621Z,5.60
2022-07-25T04:02:38.127Z,5.07
2022-07-25T04:05:07.062Z,5.55
2022-07-25T04:07:34.250Z,5.47
2022-07-25T04:10:02.005Z,6.32
2022-07-25T04:12:28.846Z,5.47
2022-07-25T04:14:55.622Z,5.85
2022-07-25T04:17:22.546Z,5.47
2022-07-25T04:19:52.060Z,6.00
2022-07-25T04:22:18.920Z,5.72
2022-07-25T04:24:45.731Z,5.88
2022-07-25T04:27:12.520Z,5.70
2022-07-25T04:29:39.562Z,5.38
2022-07-25T04:32:06.795Z,5.18
2022-07-25T04:34:33.694Z,5.70
2022-07-25T04:37:00.507Z,5.97
2022-07-25T04:39:27.451Z,5.50
2022-07-25T04:41:54.248Z,5.53
2022-07-25T04:44:21.081Z,6.07
2022-07-25T04:46:47.950Z,6.10
2022-07-25T04:49:14.909Z,6.43
2022-07-25T04:51:41.784Z,5.55
2022-07-25T04:54:09.713Z,6.03
2022-07-25T04:56:37.408Z,5.55
2022-07-25T04:59:06.353Z,5.53
2022-07-25T05:01:34.364Z,5.53
2022-07-25T05:04:01.497Z,5.30
2022-07-25T05:06:28.317Z,6.28
2022-07-25T05:08:55.488Z,5.85
2022-07-25T05:11:22.493Z,5.80
2022-07-25T05:13:49.313Z,6.03
2022-07-25T05:16:16.304Z,5.55
2022-07-25T05:18:43.200Z,5.38
2022-07-25T05:21:11.873Z,5.68
2022-07-25T05:23:38.884Z,6.45
2022-07-25T05:26:05.869Z,5.32
2022-07-25T05:28:32.681Z,6.38
2022-07-25T05:30:59.479Z,5.57
2022-07-25T05:33:26.663Z,6.38
2022-07-25T05:35:53.570Z,6.13
2022-07-25T05:38:20.523Z,6.20
2022-07-25T05:40:48.233Z,6.15
2022-07-25T05:43:15.189Z,5.88
2022-07-25T05:45:42.485Z,6.53
2022-07-25T05:48:09.341Z,5.85
2022-07-25T05:50:39.545Z,5.70
2022-07-25T05:53:06.298Z,6.03
2022-07-25T05:55:33.185Z,6.43
2022-07-25T05:58:00.226Z,5.90
2022-07-25T06:00:29.567Z,5.60
2022-07-25T06:03:00.463Z,5.65
2022-07-25T06:05:27.924Z,5.35
2022-07-25T06:07:54.770Z,5.97
2022-07-25T06:10:22.350Z,4.65
2022-07-25T06:12:49.493Z,5.68
2022-07-25T06:15:22.567Z,5.18
2022-07-25T06:17:53.432Z,5.25
2022-07-25T06:20:20.548Z,5.70
2022-07-25T06:22:47.351Z,5.53
2022-07-25T06:25:15.044Z,5.78
2022-07-25T06:27:42.578Z,6.18
2022-07-25T06:30:19.241Z,5.22
2022-07-25T06:32:47.225Z,5.40
2022-07-25T06:35:14.209Z,5.32
2022-07-25T06:37:41.337Z,5.95
2022-07-25T06:40:09.288Z,4.95
2022-07-25T06:42:46.290Z,7.35
2022-07-25T06:45:14.732Z,6.53
2022-07-25T06:47:42.854Z,4.88
2022-07-25T06:50:12.480Z,4.70
2022-07-25T06:52:40.207Z,4.47
2022-07-25T06:55:09.270Z,4.35
2022-07-25T06:57:36.308Z,4.53
2022-07-25T07:00:08.717Z,4.95
2022-07-25T07:02:46.983Z,5.00
2022-07-25T07:05:13.801Z,5.47
2022-07-25T07:07:47.186Z,5.10
2022-07-25T07:10:15.063Z,4.25
2022-07-25T07:12:41.833Z,5.05
2022-07-25T07:15:09.091Z,4.88
2022-07-25T07:17:36.189Z,4.18
2022-07-25T07:20:04.534Z,4.03
2022-07-25T07:22:31.360Z,4.15
2022-07-25T07:24:58.208Z,4.20
2022-07-25T07:27:25.300Z,5.07
2022-07-25T07:29:52.108Z,4.18
2022-07-25T07:32:21.440Z,4.95
2022-07-25T07:34:48.226Z,4.38
2022-07-25T07:37:15.069Z,3.97
2022-07-25T07:39:41.970Z,4.15
2022-07-25T07:42:08.751Z,3.75
2022-07-25T07:44:35.947Z,4.78
2022-07-25T07:47:03.191Z,4.72
2022-07-25T07:49:30.199Z,4.85
2022-07-25T07:52:04.135Z,4.45
2022-07-25T07:54:49.462Z,4.38
2022-07-25T07:57:16.285Z,3.45
2022-07-25T07:59:43.066Z,3.55
2022-07-25T08:02:09.934Z,3.95
2022-07-25T08:04:36.812Z,3.88
2022-07-25T08:07:03.780Z,3.70
2022-07-25T08:09:30.573Z,3.75
2022-07-25T08:11:57.416Z,4.32
2022-07-25T08:14:24.269Z,3.50
2022-07-25T08:16:52.686Z,3.70
2022-07-25T08:19:19.722Z,4.68
2022-07-25T08:21:47.176Z,4.45
2022-07-25T08:24:14.068Z,4.03
2022-07-25T08:26:41.129Z,3.88
2022-07-25T08:29:28.084Z,3.83
2022-07-25T08:31:54.763Z,3.70
2022-07-25T08:34:22.553Z,3.65
2022-07-25T08:36:49.789Z,3.78
2022-07-25T08:39:16.609Z,4.05
2022-07-25T08:41:43.517Z,3.88
2022-07-25T08:44:11.144Z,4.90
2022-07-25T08:46:40.529Z,4.47
2022-07-25T08:49:08.947Z,4.43
2022-07-25T08:51:36.096Z,3.92
2022-07-25T08:54:04.754Z,4.50
2022-07-25T08:56:33.450Z,3.50
2022-07-25T08:59:00.530Z,4.30
2022-07-25T09:01:31.504Z,4.07
2022-07-25T09:04:02.862Z,3.63
2022-07-25T09:06:29.860Z,3.42
2022-07-25T09:08:59.558Z,3.65
2022-07-25T09:11:28.346Z,4.25
2022-07-25T09:13:59.732Z,3.80
2022-07-25T09:16:36.060Z,3.55
2022-07-25T09:19:16.320Z,5.00
2022-07-25T09:21:45.614Z,5.05
2022-07-25T09:24:17.765Z,5.25
2022-07-25T09:26:51.705Z,4.32
2022-07-25T09:29:18.504Z,4.00
2022-07-25T09:31:46.063Z,3.72
2022-07-25T09:34:13.054Z,3.53
2022-07-25T09:36:52.463Z,3.85
2022-07-25T09:39:19.351Z,4.55
2022-07-25T09:41:46.273Z,3.65
2022-07-25T09:44:17.860Z,3.65
2022-07-25T09:46:45.301Z,4.47
2022-07-25T09:49:14.661Z,3.90
2022-07-25T09:51:42.978Z,4.28
2022-07-25T09:54:10.322Z,3.67
2022-07-25T09:56:37.340Z,3.50
2022-07-25T09:59:05.498Z,3.83
2022-07-25T10:01:39.295Z,3.50
2022-07-25T10:04:22.687Z,3.90
2022-07-25T10:07:07.998Z,3.40
2022-07-25T10:09:44.968Z,3.47
2022-07-25T10:12:14.212Z,2.85
2022-07-25T10:14:41.854Z,3.50
2022-07-25T10:17:09.708Z,3.25
2022-07-25T10:19:51.125Z,3.42
2022-07-25T10:22:39.734Z,2.58
2022-07-25T10:25:12.554Z,2.30
2022-07-25T10:27:48.807Z,3.40
2022-07-25T10:30:33.589Z,2.63
2022-07-25T10:33:06.689Z,2.60
2022-07-25T10:35:33.805Z,2.50
2022-07-25T10:38:04.903Z,2.65
2022-07-25T10:40:37.468Z,3.30
2022-07-25T10:43:18.507Z,2.85
2022-07-25T10:45:58.168Z,3.28
2022-07-25T10:48:30.466Z,3.10
2022-07-25T10:50:59.235Z,3.70
2022-07-25T10:53:32.641Z,3.38
2022-07-25T10:56:17.648Z,3.13
2022-07-25T10:58:48.779Z,3.83
2022-07-25T11:01:26.831Z,3.63
2022-07-25T11:03:55.885Z,4.07
2022-07-25T11:06:33.280Z,4.15
2022-07-25T11:09:01.358Z,4.00
2022-07-25T11:11:36.786Z,3.83
2022-07-25T11:14:05.177Z,3.42
2022-07-25T11:16:32.074Z,3.47
2022-07-25T11:18:58.940Z,2.72
2022-07-25T11:21:25.775Z,2.70
2022-07-25T11:23:53.163Z,3.05
2022-07-25T11:26:20.096Z,2.90
2022-07-25T11:28:50.766Z,3.17
2022-07-25T11:31:19.091Z,2.80
2022-07-25T11:33:48.706Z,3.00
2022-07-25T11:36:16.170Z,12.02
2022-07-25T11:38:47.244Z,8.13
2022-07-25T11:41:14.245Z,7.32
2022-07-25T11:43:48.942Z,3.28
2022-07-25T11:46:18.336Z,2.95
2022-07-25T11:48:45.504Z,3.05
2022-07-25T11:51:19.112Z,2.67
2022-07-25T11:53:49.733Z,2.95
2022-07-25T11:56:41.392Z,2.20
2022-07-25T11:59:07.942Z,2.88
2022-07-25T12:01:37.375Z,3.40
2022-07-25T12:04:14.485Z,3.13
2022-07-25T12:06:45.307Z,3.28
2022-07-25T12:09:18.550Z,2.58
2022-07-25T12:11:47.433Z,2.85
2022-07-25T12:14:15.417Z,2.25
2022-07-25T12:16:42.483Z,2.30
2022-07-25T12:19:18.218Z,2.42
2022-07-25T12:21:45.626Z,2.50
2022-07-25T12:24:12.607Z,2.58
2022-07-25T12:26:39.485Z,2.15
2022-07-25T12:29:06.548Z,2.30
2022-07-25T12:31:33.719Z,1.83
2022-07-25T12:34:00.604Z,2.42
2022-07-25T12:36:27.423Z,2.00
2022-07-25T12:38:54.205Z,2.63
2022-07-25T12:41:23.559Z,2.10
2022-07-25T12:43:50.417Z,2.00
2022-07-25T12:46:17.449Z,2.10
2022-07-25T12:48:44.634Z,1.90
2022-07-25T12:51:12.510Z,2.00
2022-07-25T12:53:42.481Z,2.40
2022-07-25T12:56:10.012Z,2.40
2022-07-25T12:58:37.606Z,2.97
2022-07-25T13:01:06.047Z,2.80
2022-07-25T13:03:33.162Z,1.73
2022-07-25T13:06:00.007Z,2.03
2022-07-25T13:08:27.497Z,2.05
2022-07-25T13:10:54.610Z,2.03
2022-07-25T13:13:21.387Z,2.30
2022-07-25T13:15:48.215Z,2.47
2022-07-25T13:18:15.083Z,2.10
2022-07-25T13:20:41.878Z,2.53
2022-07-25T13:23:09.999Z,4.70
2022-07-25T13:25:37.002Z,2.53
2022-07-25T13:28:10.777Z,2.05
2022-07-25T13:30:38.213Z,2.30
2022-07-25T13:33:05.112Z,2.25
2022-07-25T13:35:38.906Z,1.90
2022-07-25T13:38:08.773Z,2.15
2022-07-25T13:40:40.633Z,4.93
2022-07-25T13:43:11.537Z,3.40
2022-07-25T13:45:38.501Z,1.80
2022-07-25T13:48:28.325Z,2.17
2022-07-25T13:50:53.066Z,1.48
2022-07-25T13:53:19.849Z,1.77
2022-07-25T13:55:46.908Z,2.00
2022-07-25T13:58:13.789Z,2.38
2022-07-25T14:00:41.206Z,1.40
2022-07-25T14:03:08.072Z,1.42
2022-07-25T14:05:37.372Z,1.50
2022-07-25T14:08:04.596Z,1.63
2022-07-25T14:10:31.481Z,1.50
2022-07-25T14:12:58.312Z,1.30
2022-07-25T14:15:25.271Z,1.70
2022-07-25T14:17:52.591Z,1.80
2022-07-25T14:20:19.661Z,2.22
2022-07-25T14:22:46.433Z,2.70
2022-07-25T14:25:13.212Z,2.05
2022-07-25T14:27:40.254Z,1.48
2022-07-25T14:30:09.077Z,1.52
2022-07-25T14:32:36.673Z,1.85
2022-07-25T14:35:06.073Z,1.70
2022-07-25T14:37:33.903Z,1.52
2022-07-25T14:40:02.877Z,1.67
2022-07-25T14:42:29.988Z,1.98
2022-07-25T14:44:56.816Z,1.60
2022-07-25T14:47:23.772Z,2.47
2022-07-25T14:49:54.101Z,1.88
2022-07-25T14:52:20.882Z,1.70
2022-07-25T14:54:47.645Z,1.60
2022-07-25T14:57:14.598Z,1.92
2022-07-25T14:59:41.505Z,1.55
2022-07-25T15:02:09.108Z,2.08
2022-07-25T15:04:35.971Z,1.50
2022-07-25T15:07:03.006Z,1.55
2022-07-25T15:09:29.785Z,2.20
2022-07-25T15:11:56.637Z,1.20
2022-07-25T15:14:23.418Z,1.48
2022-07-25T15:16:50.265Z,1.60
2022-07-25T15:19:18.239Z,1.30
2022-07-25T15:21:45.889Z,1.75
2022-07-25T15:24:13.951Z,1.63
2022-07-25T15:26:40.869Z,1.33
2022-07-25T15:29:09.623Z,2.25
2022-07-25T15:31:37.299Z,2.00
2022-07-25T15:34:04.451Z,1.30
2022-07-25T15:36:31.305Z,1.20
2022-07-25T15:38:58.132Z,1.30
2022-07-25T15:41:25.045Z,1.13
2022-07-25T15:43:51.923Z,1.40
2022-07-25T15:46:18.990Z,1.27
2022-07-25T15:48:46.007Z,1.35
2022-07-25T15:51:16.766Z,1.90
2022-07-25T15:53:43.678Z,1.45
2022-07-25T15:56:10.947Z,1.30
2022-07-25T15:58:37.753Z,1.70
2022-07-25T16:01:04.669Z,1.50
2022-07-25T16:03:31.586Z,1.20
2022-07-25T16:05:58.915Z,1.23
2022-07-25T16:08:25.805Z,1.52
2022-07-25T16:10:52.964Z,1.00
2022-07-25T16:13:19.809Z,1.42
2022-07-25T16:15:46.746Z,1.30
2022-07-25T16:18:13.724Z,0.95
2022-07-25T16:20:40.515Z,1.10
2022-07-25T16:23:07.432Z,1.70
2022-07-25T16:25:34.329Z,1.27
2022-07-25T16:28:01.479Z,1.25
2022-07-25T16:30:28.484Z,1.25
2022-07-25T16:32:55.562Z,1.10
2022-07-25T16:35:22.573Z,1.60
2022-07-25T16:37:49.406Z,0.90
2022-07-25T16:40:16.471Z,1.13
2022-07-25T16:42:43.289Z,2.33
2022-07-25T16:45:10.816Z,1.67
2022-07-25T16:47:39.660Z,1.02
2022-07-25T16:50:07.629Z,1.42
2022-07-25T16:52:34.672Z,1.30
2022-07-25T16:55:01.609Z,1.40
2022-07-25T16:57:29.266Z,1.17
2022-07-25T16:59:56.129Z,1.00
2022-07-25T17:02:28.890Z,1.17
2022-07-25T17:04:56.855Z,1.15
2022-07-25T17:07:24.000Z,1.00
2022-07-25T17:09:50.831Z,1.20
2022-07-25T17:12:17.846Z,1.40
2022-07-25T17:14:45.314Z,1.20
2022-07-25T17:17:12.658Z,1.10
2022-07-25T17:19:40.096Z,1.33
2022-07-25T17:22:08.096Z,1.00
2022-07-25T17:24:35.266Z,1.30
2022-07-25T17:27:02.318Z,1.42
2022-07-25T17:29:29.329Z,1.40
2022-07-25T17:31:56.178Z,1.50
2022-07-25T17:34:24.377Z,1.50
2022-07-25T17:36:51.324Z,1.50
2022-07-25T17:39:18.246Z,1.30
2022-07-25T17:41:45.118Z,1.45
2022-07-25T17:44:12.456Z,1.55
2022-07-25T17:46:39.702Z,1.30
2022-07-25T17:49:06.873Z,2.00
2022-07-25T17:51:33.978Z,2.00
2022-07-25T17:54:00.801Z,1.60
2022-07-25T17:56:27.670Z,2.05
2022-07-25T17:58:54.654Z,2.15
2022-07-25T18:01:21.451Z,1.58
2022-07-25T18:03:50.354Z,1.70
2022-07-25T18:06:17.562Z,1.70
2022-07-25T18:08:44.453Z,1.95
2022-07-25T18:11:11.618Z,1.90
2022-07-25T18:13:38.541Z,1.80
2022-07-25T18:16:05.807Z,2.15
2022-07-25T18:18:33.051Z,2.20
2022-07-25T18:21:00.118Z,1.73
2022-07-25T18:23:28.676Z,2.50
2022-07-25T18:25:55.660Z,1.70
2022-07-25T18:28:22.829Z,1.80
2022-07-25T18:30:52.103Z,1.83
2022-07-25T18:33:20.216Z,1.75
2022-07-25T18:35:47.088Z,2.38
2022-07-25T18:38:14.058Z,7.00
2022-07-25T18:40:40.880Z,2.53
2022-07-25T18:43:08.795Z,2.60
2022-07-25T18:45:38.811Z,1.88
2022-07-25T18:48:06.707Z,4.20
2022-07-25T18:50:33.614Z,2.70
2022-07-25T18:53:00.585Z,2.50
2022-07-25T18:55:27.420Z,3.33
2022-07-25T18:57:54.599Z,2.55
2022-07-25T19:00:21.666Z,2.70
2022-07-25T19:02:48.578Z,1.98
2022-07-25T19:05:15.516Z,1.92
2022-07-25T19:07:42.564Z,1.83
2022-07-25T19:10:10.540Z,2.40
2022-07-25T19:12:37.757Z,2.20
2022-07-25T19:15:05.651Z,2.10
2022-07-25T19:17:37.690Z,2.58
2022-07-25T19:20:05.506Z,2.40
2022-07-25T19:22:32.312Z,1.55
2022-07-25T19:25:01.512Z,1.95
2022-07-25T19:27:28.884Z,1.73
2022-07-25T19:29:55.711Z,2.00
2022-07-25T19:32:22.754Z,1.98
2022-07-25T19:34:49.606Z,1.70
2022-07-25T19:37:16.433Z,2.25
2022-07-25T19:39:43.454Z,2.42
2022-07-25T19:42:12.191Z,2.20
2022-07-25T19:44:39.248Z,2.10
2022-07-25T19:47:11.308Z,2.30
2022-07-25T19:49:39.631Z,2.15
2022-07-25T19:52:07.584Z,1.95
2022-07-25T19:54:34.437Z,2.00
2022-07-25T19:57:01.234Z,2.80
2022-07-25T19:59:28.066Z,3.30
2022-07-25T20:01:57.828Z,2.80
2022-07-25T20:04:24.770Z,2.80
2022-07-25T20:06:51.719Z,2.33
2022-07-25T20:09:18.562Z,2.40
2022-07-25T20:11:45.540Z,2.50
2022-07-25T20:14:12.735Z,2.42
2022-07-25T20:16:40.325Z,2.25
2022-07-25T20:19:09.397Z,1.73
2022-07-25T20:21:37.201Z,2.40
2022-07-25T20:24:04.313Z,1.95
2022-07-25T20:26:31.131Z,1.60
2022-07-25T20:28:58.000Z,1.92
2022-07-25T20:31:24.962Z,2.15
2022-07-25T20:33:52.780Z,1.63
2022-07-25T20:36:20.174Z,1.83
2022-07-25T20:38:47.306Z,1.95
2022-07-25T20:41:15.506Z,2.05
2022-07-25T20:43:42.862Z,1.70
2022-07-25T20:46:09.787Z,2.03
2022-07-25T20:48:36.843Z,2.20
2022-07-25T20:51:03.995Z,1.70
2022-07-25T20:53:30.905Z,1.83
2022-07-25T20:55:58.385Z,1.80
2022-07-25T20:58:25.258Z,1.90
2022-07-25T21:00:52.219Z,1.70
2022-07-25T21:03:19.082Z,1.77
2022-07-25T21:05:46.040Z,1.85
2022-07-25T21:08:12.850Z,1.60
2022-07-25T21:10:39.723Z,1.50
2022-07-25T21:13:06.749Z,1.80
2022-07-25T21:15:33.867Z,1.65
2022-07-25T21:18:00.799Z,1.45
2022-07-25T21:20:27.892Z,2.00
2022-07-25T21:22:55.379Z,2.80
2022-07-25T21:25:22.315Z,2.47
2022-07-25T21:27:49.294Z,1.85
2022-07-25T21:30:16.212Z,1.60
2022-07-25T21:32:44.388Z,1.42
2022-07-25T21:35:11.918Z,2.00
2022-07-25T21:37:38.838Z,1.70
2022-07-25T21:40:06.469Z,1.40
2022-07-25T21:42:33.332Z,1.92
2022-07-25T21:45:00.098Z,1.90
2022-07-25T21:47:27.042Z,1.73
2022-07-25T21:50:13.157Z,1.73
2022-07-25T21:52:42.167Z,1.42
2022-07-25T21:55:09.202Z,1.35
2022-07-25T21:57:36.065Z,1.67
2022-07-25T22:00:05.410Z,1.50
2022-07-25T22:02:32.184Z,1.20
2022-07-25T22:04:59.059Z,1.40
2022-07-25T22:07:25.836Z,1.45
2022-07-25T22:09:52.610Z,1.50
2022-07-25T22:12:19.517Z,1.48
2022-07-25T22:14:46.293Z,1.60
2022-07-25T22:17:13.755Z,1.80
2022-07-25T22:19:41.214Z,2.00
2022-07-25T22:22:08.322Z,1.60
2022-07-25T22:24:35.288Z,1.70
2022-07-25T22:27:02.159Z,1.50
2022-07-25T22:29:29.006Z,1.70
2022-07-25T22:31:56.070Z,1.85
2022-07-25T22:34:23.043Z,1.60
2022-07-25T22:36:50.011Z,1.75
2022-07-25T22:39:17.015Z,1.30
2022-07-25T22:41:44.006Z,1.90
2022-07-25T22:44:10.898Z,1.77
2022-07-25T22:46:37.907Z,1.60
2022-07-25T22:49:06.320Z,1.65
2022-07-25T22:51:34.072Z,1.60
2022-07-25T22:54:01.446Z,1.83
2022-07-25T22:56:28.595Z,1.58
2022-07-25T22:58:55.444Z,1.70
2022-07-25T23:01:22.496Z,1.60
2022-07-25T23:03:50.308Z,1.70
2022-07-25T23:06:18.948Z,1.80
2022-07-25T23:08:46.116Z,1.40
2022-07-25T23:11:12.964Z,1.67
2022-07-25T23:13:39.830Z,1.77
2022-07-25T23:16:10.406Z,1.50
2022-07-25T23:18:37.998Z,1.67
2022-07-25T23:21:04.928Z,1.40
2022-07-25T23:23:31.780Z,2.55
2022-07-25T23:25:58.727Z,1.70
2022-07-25T23:28:25.493Z,2.60
2022-07-25T23:30:52.303Z,2.20
2022-07-25T23:33:19.277Z,2.33
2022-07-25T23:35:52.416Z,1.85
2022-07-25T23:38:19.264Z,1.60
2022-07-25T23:40:46.065Z,1.48
2022-07-25T23:43:13.600Z,1.63
2022-07-25T23:45:43.198Z,1.70
2022-07-25T23:48:13.354Z,1.70
2022-07-25T23:50:40.141Z,1.90
2022-07-25T23:53:06.966Z,1.70
2022-07-25T23:55:33.777Z,1.83
2022-07-25T23:58:00.542Z,1.85
